sensor_id;sensor_type;location;lat;lon;timestamp;pressure;altitude;pressure_sealevel;temperature;humidity
68226;BME280;55045;49.410;11.030;2023-04-26T00:02:06;97834.66;;;2.85;100.00
68226;BME280;55045;49.410;11.030;2023-04-26T00:05:10;97732.09;;;2.14;100.00
68226;BME280;55045;49.410;11.030;2023-04-26T00:08:15;97675.09;;;1.67;100.00
68226;BME280;55045;49.410;11.030;2023-04-26T00:11:18;97841.75;;;2.72;100.00
68226;BME280;55045;49.410;11.030;2023-04-26T00:14:22;97974.31;;;3.43;100.00
68226;BME280;55045;49.410;11.030;2023-04-26T00:17:25;97861.72;;;2.98;100.00
68226;BME280;55045;49.410;11.030;2023-04-26T00:20:31;97851.09;;;2.75;100.00
68226;BME280;55045;49.410;11.030;2023-04-26T00:23:36;97862.59;;;2.97;100.00
68226;BME280;55045;49.410;11.030;2023-04-26T00:26:39;97802.16;;;2.48;100.00
68226;BME280;55045;49.410;11.030;2023-04-26T00:29:42;97902.66;;;3.38;100.00
68226;BME280;55045;49.410;11.030;2023-04-26T00:32:46;98055.59;;;3.80;100.00
68226;BME280;55045;49.410;11.030;2023-04-26T00:35:49;97711.75;;;2.08;100.00
68226;BME280;55045;49.410;11.030;2023-04-26T00:38:54;97794.97;;;2.24;100.00
68226;BME280;55045;49.410;11.030;2023-04-26T00:41:57;98019.75;;;3.36;100.00
68226;BME280;55045;49.410;11.030;2023-04-26T00:45:01;97875.94;;;2.71;100.00
68226;BME280;55045;49.410;11.030;2023-04-26T00:48:06;97785.16;;;1.58;100.00
68226;BME280;55045;49.410;11.030;2023-04-26T00:51:09;97974.41;;;2.53;100.00
68226;BME280;55045;49.410;11.030;2023-04-26T00:54:15;97753.06;;;1.41;100.00
68226;BME280;55045;49.410;11.030;2023-04-26T00:57:18;97820.41;;;1.88;100.00
68226;BME280;55045;49.410;11.030;2023-04-26T01:00:22;97783.25;;;1.69;100.00
68226;BME280;55045;49.410;11.030;2023-04-26T01:03:28;97882.53;;;1.95;100.00
68226;BME280;55045;49.410;11.030;2023-04-26T01:06:33;98002.19;;;2.75;100.00
68226;BME280;55045;49.410;11.030;2023-04-26T01:09:40;98025.94;;;2.83;100.00
68226;BME280;55045;49.410;11.030;2023-04-26T01:12:44;98034.88;;;2.62;100.00
68226;BME280;55045;49.410;11.030;2023-04-26T01:15:52;98037.28;;;2.70;100.00
68226;BME280;55045;49.410;11.030;2023-04-26T01:19:00;98048.19;;;2.81;100.00
68226;BME280;55045;49.410;11.030;2023-04-26T01:22:08;98037.75;;;2.45;100.00
68226;BME280;55045;49.410;11.030;2023-04-26T01:25:15;98044.19;;;2.65;100.00
68226;BME280;55045;49.410;11.030;2023-04-26T01:28:19;98050.06;;;2.71;100.00
68226;BME280;55045;49.410;11.030;2023-04-26T01:31:22;98045.69;;;2.78;100.00
68226;BME280;55045;49.410;11.030;2023-04-26T01:34:25;98040.50;;;2.81;100.00
68226;BME280;55045;49.410;11.030;2023-04-26T01:37:29;98022.34;;;2.93;100.00
68226;BME280;55045;49.410;11.030;2023-04-26T01:40:35;98043.34;;;2.64;100.00
68226;BME280;55045;49.410;11.030;2023-04-26T01:43:40;98054.38;;;2.69;100.00
68226;BME280;55045;49.410;11.030;2023-04-26T01:46:44;98055.88;;;2.81;100.00
68226;BME280;55045;49.410;11.030;2023-04-26T01:49:47;98034.66;;;2.73;100.00
68226;BME280;55045;49.410;11.030;2023-04-26T01:52:51;98052.22;;;2.45;100.00
68226;BME280;55045;49.410;11.030;2023-04-26T01:55:55;98058.22;;;2.45;100.00
68226;BME280;55045;49.410;11.030;2023-04-26T01:58:58;98048.63;;;2.55;100.00
68226;BME280;55045;49.410;11.030;2023-04-26T02:02:04;98053.97;;;2.43;100.00
68226;BME280;55045;49.410;11.030;2023-04-26T02:05:10;98059.06;;;2.44;100.00
68226;BME280;55045;49.410;11.030;2023-04-26T02:08:13;98066.78;;;2.41;100.00
68226;BME280;55045;49.410;11.030;2023-04-26T02:11:18;98064.03;;;2.53;100.00
68226;BME280;55045;49.410;11.030;2023-04-26T02:14:21;98066.59;;;2.53;100.00
68226;BME280;55045;49.410;11.030;2023-04-26T02:17:25;98067.00;;;2.29;100.00
68226;BME280;55045;49.410;11.030;2023-04-26T02:20:32;98065.25;;;2.31;100.00
68226;BME280;55045;49.410;11.030;2023-04-26T02:23:35;98062.75;;;2.28;100.00
68226;BME280;55045;49.410;11.030;2023-04-26T02:26:40;98072.47;;;2.06;100.00
68226;BME280;55045;49.410;11.030;2023-04-26T02:29:43;98051.16;;;2.04;100.00
68226;BME280;55045;49.410;11.030;2023-04-26T02:32:47;98067.06;;;2.26;100.00
68226;BME280;55045;49.410;11.030;2023-04-26T02:35:50;98055.97;;;2.24;100.00
68226;BME280;55045;49.410;11.030;2023-04-26T02:38:53;98065.16;;;2.37;100.00
68226;BME280;55045;49.410;11.030;2023-04-26T02:41:58;98068.22;;;2.07;100.00
68226;BME280;55045;49.410;11.030;2023-04-26T02:45:05;98049.41;;;2.09;100.00
68226;BME280;55045;49.410;11.030;2023-04-26T02:48:09;98058.00;;;2.03;100.00
68226;BME280;55045;49.410;11.030;2023-04-26T02:51:13;98060.66;;;1.97;100.00
68226;BME280;55045;49.410;11.030;2023-04-26T02:54:16;98061.63;;;1.90;100.00
68226;BME280;55045;49.410;11.030;2023-04-26T02:57:21;98060.16;;;1.74;100.00
68226;BME280;55045;49.410;11.030;2023-04-26T03:00:24;98071.16;;;1.79;100.00
68226;BME280;55045;49.410;11.030;2023-04-26T03:03:28;98053.69;;;1.47;100.00
68226;BME280;55045;49.410;11.030;2023-04-26T03:06:33;98072.19;;;1.66;100.00
68226;BME280;55045;49.410;11.030;2023-04-26T03:09:36;98076.38;;;1.71;100.00
68226;BME280;55045;49.410;11.030;2023-04-26T03:12:41;98068.97;;;1.52;100.00
68226;BME280;55045;49.410;11.030;2023-04-26T03:15:44;98051.13;;;1.49;100.00
68226;BME280;55045;49.410;11.030;2023-04-26T03:18:48;98068.31;;;1.37;100.00
68226;BME280;55045;49.410;11.030;2023-04-26T03:21:51;98072.22;;;1.64;100.00
68226;BME280;55045;49.410;11.030;2023-04-26T03:24:54;98078.41;;;1.47;100.00
68226;BME280;55045;49.410;11.030;2023-04-26T03:28:02;98078.31;;;1.53;100.00
68226;BME280;55045;49.410;11.030;2023-04-26T03:34:48;98072.13;;;1.01;100.00
68226;BME280;55045;49.410;11.030;2023-04-26T03:37:52;98016.19;;;0.80;100.00
68226;BME280;55045;49.410;11.030;2023-04-26T03:40:58;98084.72;;;1.17;100.00
68226;BME280;55045;49.410;11.030;2023-04-26T03:44:01;98086.72;;;0.90;100.00
68226;BME280;55045;49.410;11.030;2023-04-26T03:47:05;98093.69;;;1.50;100.00
68226;BME280;55045;49.410;11.030;2023-04-26T03:50:11;98098.63;;;0.90;100.00
68226;BME280;55045;49.410;11.030;2023-04-26T03:53:14;98090.09;;;0.91;100.00
68226;BME280;55045;49.410;11.030;2023-04-26T03:56:18;98087.03;;;0.58;100.00
68226;BME280;55045;49.410;11.030;2023-04-26T03:59:25;98027.91;;;0.12;100.00
68226;BME280;55045;49.410;11.030;2023-04-26T04:02:29;98049.91;;;0.25;100.00
68226;BME280;55045;49.410;11.030;2023-04-26T04:05:36;98098.91;;;0.62;100.00
68226;BME280;55045;49.410;11.030;2023-04-26T04:08:40;98097.91;;;0.78;100.00
68226;BME280;55045;49.410;11.030;2023-04-26T04:11:43;98080.75;;;0.93;100.00
68226;BME280;55045;49.410;11.030;2023-04-26T04:14:48;98110.81;;;0.63;100.00
68226;BME280;55045;49.410;11.030;2023-04-26T04:17:51;98112.50;;;0.66;100.00
68226;BME280;55045;49.410;11.030;2023-04-26T04:20:56;98085.88;;;0.88;100.00
68226;BME280;55045;49.410;11.030;2023-04-26T04:24:00;98107.81;;;1.07;100.00
68226;BME280;55045;49.410;11.030;2023-04-26T04:27:03;98096.31;;;0.67;100.00
68226;BME280;55045;49.410;11.030;2023-04-26T04:30:10;98111.34;;;0.97;100.00
68226;BME280;55045;49.410;11.030;2023-04-26T04:33:14;98113.38;;;0.58;100.00
68226;BME280;55045;49.410;11.030;2023-04-26T04:36:20;98108.72;;;1.02;100.00
68226;BME280;55045;49.410;11.030;2023-04-26T04:39:23;98124.25;;;0.80;100.00
68226;BME280;55045;49.410;11.030;2023-04-26T04:42:27;98129.19;;;0.99;100.00
68226;BME280;55045;49.410;11.030;2023-04-26T04:45:31;98128.50;;;0.80;100.00
68226;BME280;55045;49.410;11.030;2023-04-26T04:48:35;98124.53;;;0.51;100.00
68226;BME280;55045;49.410;11.030;2023-04-26T04:51:41;98137.97;;;0.70;100.00
68226;BME280;55045;49.410;11.030;2023-04-26T04:54:45;98142.94;;;0.87;100.00
68226;BME280;55045;49.410;11.030;2023-04-26T04:57:49;98105.72;;;0.60;100.00
68226;BME280;55045;49.410;11.030;2023-04-26T05:00:54;98076.16;;;0.38;100.00
68226;BME280;55045;49.410;11.030;2023-04-26T05:04:01;98099.63;;;0.76;100.00
68226;BME280;55045;49.410;11.030;2023-04-26T05:07:09;98122.13;;;1.24;100.00
68226;BME280;55045;49.410;11.030;2023-04-26T05:10:13;98140.81;;;1.27;100.00
68226;BME280;55045;49.410;11.030;2023-04-26T05:13:17;98145.75;;;1.41;100.00
68226;BME280;55045;49.410;11.030;2023-04-26T05:16:20;98123.19;;;1.77;100.00
68226;BME280;55045;49.410;11.030;2023-04-26T05:19:24;98128.59;;;1.52;100.00
68226;BME280;55045;49.410;11.030;2023-04-26T05:22:29;98150.75;;;1.55;100.00
68226;BME280;55045;49.410;11.030;2023-04-26T05:25:36;98135.28;;;1.64;100.00
68226;BME280;55045;49.410;11.030;2023-04-26T05:28:59;98146.19;;;1.78;100.00
68226;BME280;55045;49.410;11.030;2023-04-26T05:32:17;98155.38;;;1.91;100.00
68226;BME280;55045;49.410;11.030;2023-04-26T05:35:29;98140.00;;;1.94;100.00
68226;BME280;55045;49.410;11.030;2023-04-26T05:38:35;98154.13;;;2.21;100.00
68226;BME280;55045;49.410;11.030;2023-04-26T05:41:39;98129.22;;;2.31;100.00
68226;BME280;55045;49.410;11.030;2023-04-26T05:44:42;98161.47;;;2.43;100.00
68226;BME280;55045;49.410;11.030;2023-04-26T05:47:46;98166.41;;;2.55;100.00
68226;BME280;55045;49.410;11.030;2023-04-26T05:50:50;98120.63;;;3.34;100.00
68226;BME280;55045;49.410;11.030;2023-04-26T05:53:55;98162.19;;;3.93;100.00
68226;BME280;55045;49.410;11.030;2023-04-26T05:56:59;98162.41;;;3.82;100.00
68226;BME280;55045;49.410;11.030;2023-04-26T06:00:04;98158.28;;;4.15;100.00
68226;BME280;55045;49.410;11.030;2023-04-26T06:03:18;98151.31;;;3.82;100.00
68226;BME280;55045;49.410;11.030;2023-04-26T06:06:22;98165.88;;;4.21;100.00
68226;BME280;55045;49.410;11.030;2023-04-26T06:09:30;98042.00;;;3.34;100.00
68226;BME280;55045;49.410;11.030;2023-04-26T06:12:33;98131.31;;;3.96;100.00
68226;BME280;55045;49.410;11.030;2023-04-26T06:15:36;98129.06;;;4.58;100.00
68226;BME280;55045;49.410;11.030;2023-04-26T06:18:39;98129.44;;;4.43;100.00
68226;BME280;55045;49.410;11.030;2023-04-26T06:21:43;98133.56;;;4.48;100.00
68226;BME280;55045;49.410;11.030;2023-04-26T06:24:47;98093.94;;;4.58;100.00
68226;BME280;55045;49.410;11.030;2023-04-26T06:27:51;98175.41;;;5.56;100.00
68226;BME280;55045;49.410;11.030;2023-04-26T06:30:55;98142.19;;;5.15;100.00
68226;BME280;55045;49.410;11.030;2023-04-26T06:33:59;98157.28;;;5.59;100.00
68226;BME280;55045;49.410;11.030;2023-04-26T06:37:04;98157.78;;;5.42;100.00
68226;BME280;55045;49.410;11.030;2023-04-26T06:40:11;98176.78;;;5.36;100.00
68226;BME280;55045;49.410;11.030;2023-04-26T06:43:17;98167.22;;;6.03;100.00
68226;BME280;55045;49.410;11.030;2023-04-26T06:46:30;98164.88;;;6.52;100.00
68226;BME280;55045;49.410;11.030;2023-04-26T06:49:34;98147.25;;;5.81;100.00
68226;BME280;55045;49.410;11.030;2023-04-26T06:52:37;98163.06;;;6.27;100.00
68226;BME280;55045;49.410;11.030;2023-04-26T06:55:42;98158.66;;;6.31;100.00
68226;BME280;55045;49.410;11.030;2023-04-26T06:58:58;98163.91;;;7.09;100.00
68226;BME280;55045;49.410;11.030;2023-04-26T07:02:02;98027.59;;;5.95;100.00
68226;BME280;55045;49.410;11.030;2023-04-26T07:05:08;98167.16;;;6.61;100.00
68226;BME280;55045;49.410;11.030;2023-04-26T07:08:12;98165.25;;;6.94;100.00
68226;BME280;55045;49.410;11.030;2023-04-26T07:11:18;98155.03;;;6.91;100.00
68226;BME280;55045;49.410;11.030;2023-04-26T07:14:22;98168.34;;;7.78;100.00
68226;BME280;55045;49.410;11.030;2023-04-26T07:17:25;98164.06;;;7.29;100.00
68226;BME280;55045;49.410;11.030;2023-04-26T07:20:29;98173.44;;;7.07;100.00
68226;BME280;55045;49.410;11.030;2023-04-26T07:23:32;98164.22;;;7.25;100.00
68226;BME280;55045;49.410;11.030;2023-04-26T07:26:37;98182.00;;;7.07;100.00
68226;BME280;55045;49.410;11.030;2023-04-26T07:29:40;98170.38;;;7.45;95.49
68226;BME280;55045;49.410;11.030;2023-04-26T07:32:43;98110.25;;;6.93;94.81
68226;BME280;55045;49.410;11.030;2023-04-26T07:35:52;98168.47;;;7.99;94.77
68226;BME280;55045;49.410;11.030;2023-04-26T07:38:56;98138.47;;;7.95;96.22
68226;BME280;55045;49.410;11.030;2023-04-26T07:42:01;98175.31;;;8.00;95.03
68226;BME280;55045;49.410;11.030;2023-04-26T07:45:05;98131.13;;;8.07;91.42
68226;BME280;55045;49.410;11.030;2023-04-26T07:48:09;98173.94;;;8.36;90.86
68226;BME280;55045;49.410;11.030;2023-04-26T07:51:13;98168.50;;;7.26;92.64
68226;BME280;55045;49.410;11.030;2023-04-26T07:54:16;98169.06;;;7.82;94.78
68226;BME280;55045;49.410;11.030;2023-04-26T07:57:20;98170.72;;;6.85;95.04
68226;BME280;55045;49.410;11.030;2023-04-26T08:00:24;98174.88;;;7.15;95.30
68226;BME280;55045;49.410;11.030;2023-04-26T08:03:27;98166.84;;;7.23;96.74
68226;BME280;55045;49.410;11.030;2023-04-26T08:06:31;98162.09;;;7.61;95.40
68226;BME280;55045;49.410;11.030;2023-04-26T08:09:34;98139.03;;;8.03;94.38
68226;BME280;55045;49.410;11.030;2023-04-26T08:12:39;98109.88;;;7.77;91.08
68226;BME280;55045;49.410;11.030;2023-04-26T08:15:42;98169.78;;;7.12;97.23
68226;BME280;55045;49.410;11.030;2023-04-26T08:18:45;98152.47;;;6.91;95.67
68226;BME280;55045;49.410;11.030;2023-04-26T08:21:49;98173.13;;;6.89;95.39
68226;BME280;55045;49.410;11.030;2023-04-26T08:24:54;98156.66;;;6.93;98.05
68226;BME280;55045;49.410;11.030;2023-04-26T08:27:59;98149.91;;;7.64;97.09
68226;BME280;55045;49.410;11.030;2023-04-26T08:31:02;98080.69;;;7.29;94.51
68226;BME280;55045;49.410;11.030;2023-04-26T08:34:06;98164.59;;;7.87;90.69
68226;BME280;55045;49.410;11.030;2023-04-26T08:37:12;98169.78;;;8.32;86.93
68226;BME280;55045;49.410;11.030;2023-04-26T08:40:21;98177.81;;;7.30;89.97
68226;BME280;55045;49.410;11.030;2023-04-26T08:43:27;98115.72;;;7.59;94.75
68226;BME280;55045;49.410;11.030;2023-04-26T08:46:35;98162.22;;;8.04;89.88
68226;BME280;55045;49.410;11.030;2023-04-26T08:49:39;98147.00;;;7.97;89.75
68226;BME280;55045;49.410;11.030;2023-04-26T08:52:44;98174.66;;;9.06;86.02
68226;BME280;55045;49.410;11.030;2023-04-26T08:55:49;98168.47;;;7.99;87.51
68226;BME280;55045;49.410;11.030;2023-04-26T08:58:54;98174.50;;;7.74;88.21
68226;BME280;55045;49.410;11.030;2023-04-26T09:01:58;98166.03;;;8.41;87.42
68226;BME280;55045;49.410;11.030;2023-04-26T09:05:09;98164.53;;;7.89;87.98
68226;BME280;55045;49.410;11.030;2023-04-26T09:08:15;98157.78;;;7.61;90.33
68226;BME280;55045;49.410;11.030;2023-04-26T09:11:19;98140.16;;;8.19;86.99
68226;BME280;55045;49.410;11.030;2023-04-26T09:14:25;98165.41;;;8.78;83.30
68226;BME280;55045;49.410;11.030;2023-04-26T09:17:29;98159.66;;;9.14;75.23
68226;BME280;55045;49.410;11.030;2023-04-26T09:20:33;98163.25;;;8.89;79.82
68226;BME280;55045;49.410;11.030;2023-04-26T09:23:55;98175.97;;;8.52;84.17
68226;BME280;55045;49.410;11.030;2023-04-26T09:27:02;97991.56;;;6.97;83.56
68226;BME280;55045;49.410;11.030;2023-04-26T09:30:09;97921.75;;;7.25;89.16
68226;BME280;55045;49.410;11.030;2023-04-26T09:34:48;98060.47;;;8.52;81.32
68226;BME280;55045;49.410;11.030;2023-04-26T09:37:53;97947.81;;;7.62;74.62
68226;BME280;55045;49.410;11.030;2023-04-26T09:41:02;97796.13;;;7.05;70.58
68226;BME280;55045;49.410;11.030;2023-04-26T09:44:05;97932.63;;;7.76;69.81
68226;BME280;55045;49.410;11.030;2023-04-26T09:47:10;97798.28;;;6.93;75.21
68226;BME280;55045;49.410;11.030;2023-04-26T09:50:24;97778.97;;;5.88;75.88
68226;BME280;55045;49.410;11.030;2023-04-26T09:53:29;97852.19;;;6.54;76.36
68226;BME280;55045;49.410;11.030;2023-04-26T09:56:35;97922.34;;;6.86;76.64
68226;BME280;55045;49.410;11.030;2023-04-26T09:59:40;97826.44;;;6.54;76.09
68226;BME280;55045;49.410;11.030;2023-04-26T10:02:45;97984.78;;;7.17;72.44
68226;BME280;55045;49.410;11.030;2023-04-26T10:05:51;98131.72;;;8.14;71.96
68226;BME280;55045;49.410;11.030;2023-04-26T10:08:55;98145.84;;;8.51;71.59
68226;BME280;55045;49.410;11.030;2023-04-26T10:11:59;97893.03;;;7.76;66.06
68226;BME280;55045;49.410;11.030;2023-04-26T10:15:05;98120.59;;;9.59;64.12
68226;BME280;55045;49.410;11.030;2023-04-26T10:18:10;98096.00;;;9.30;67.80
68226;BME280;55045;49.410;11.030;2023-04-26T10:21:21;98126.94;;;9.91;66.06
68226;BME280;55045;49.410;11.030;2023-04-26T10:24:28;98125.00;;;10.34;64.68
68226;BME280;55045;49.410;11.030;2023-04-26T10:27:50;98135.56;;;9.92;64.06
68226;BME280;55045;49.410;11.030;2023-04-26T10:30:54;98104.94;;;9.03;62.42
68226;BME280;55045;49.410;11.030;2023-04-26T10:34:17;98093.53;;;8.86;63.34
68226;BME280;55045;49.410;11.030;2023-04-26T10:37:22;98141.28;;;9.20;65.82
68226;BME280;55045;49.410;11.030;2023-04-26T10:40:27;98102.78;;;8.92;66.35
68226;BME280;55045;49.410;11.030;2023-04-26T10:43:30;98094.47;;;8.63;67.14
68226;BME280;55045;49.410;11.030;2023-04-26T10:46:38;98112.16;;;8.74;69.06
68226;BME280;55045;49.410;11.030;2023-04-26T10:49:43;98085.13;;;8.81;67.69
68226;BME280;55045;49.410;11.030;2023-04-26T10:53:09;98126.19;;;9.30;69.66
68226;BME280;55045;49.410;11.030;2023-04-26T10:56:49;98117.03;;;9.80;64.25
68226;BME280;55045;49.410;11.030;2023-04-26T11:03:17;98107.03;;;9.34;66.92
68226;BME280;55045;49.410;11.030;2023-04-26T11:06:22;98093.22;;;8.74;66.95
68226;BME280;55045;49.410;11.030;2023-04-26T11:09:34;98111.09;;;9.39;68.56
68226;BME280;55045;49.410;11.030;2023-04-26T11:12:40;98117.03;;;9.02;65.70
68226;BME280;55045;49.410;11.030;2023-04-26T11:15:44;98110.50;;;9.14;67.84
68226;BME280;55045;49.410;11.030;2023-04-26T11:18:53;98070.69;;;9.16;65.93
68226;BME280;55045;49.410;11.030;2023-04-26T11:21:58;98039.94;;;9.29;66.93
68226;BME280;55045;49.410;11.030;2023-04-26T11:25:03;98028.09;;;9.05;65.86
68226;BME280;55045;49.410;11.030;2023-04-26T11:28:07;98065.53;;;9.56;67.13
68226;BME280;55045;49.410;11.030;2023-04-26T11:31:10;98014.84;;;9.31;66.69
68226;BME280;55045;49.410;11.030;2023-04-26T11:34:15;98099.06;;;9.96;65.30
68226;BME280;55045;49.410;11.030;2023-04-26T11:37:19;98086.53;;;9.87;62.11
68226;BME280;55045;49.410;11.030;2023-04-26T11:40:26;98095.63;;;9.96;65.56
68226;BME280;55045;49.410;11.030;2023-04-26T11:43:33;98093.94;;;9.76;60.80
68226;BME280;55045;49.410;11.030;2023-04-26T11:46:37;98078.38;;;9.18;62.13
68226;BME280;55045;49.410;11.030;2023-04-26T11:49:42;98059.97;;;9.05;61.61
68226;BME280;55045;49.410;11.030;2023-04-26T11:52:46;98097.25;;;9.61;62.54
68226;BME280;55045;49.410;11.030;2023-04-26T11:55:51;98052.84;;;9.87;63.55
68226;BME280;55045;49.410;11.030;2023-04-26T11:58:54;98068.13;;;9.93;64.57
68226;BME280;55045;49.410;11.030;2023-04-26T12:02:04;98066.34;;;10.13;64.34
68226;BME280;55045;49.410;11.030;2023-04-26T12:05:08;98050.16;;;9.71;60.10
68226;BME280;55045;49.410;11.030;2023-04-26T12:08:12;98067.13;;;9.96;59.20
68226;BME280;55045;49.410;11.030;2023-04-26T12:11:17;98078.47;;;10.12;56.96
68226;BME280;55045;49.410;11.030;2023-04-26T12:14:20;98081.84;;;9.95;59.38
68226;BME280;55045;49.410;11.030;2023-04-26T12:17:27;98056.50;;;10.19;61.63
68226;BME280;55045;49.410;11.030;2023-04-26T12:20:31;98072.81;;;10.23;56.21
68226;BME280;55045;49.410;11.030;2023-04-26T12:23:38;97846.00;;;9.26;59.88
68226;BME280;55045;49.410;11.030;2023-04-26T12:26:43;98059.66;;;10.62;56.03
68226;BME280;55045;49.410;11.030;2023-04-26T12:29:47;98060.34;;;11.33;55.55
68226;BME280;55045;49.410;11.030;2023-04-26T12:32:50;98019.28;;;10.39;56.30
68226;BME280;55045;49.410;11.030;2023-04-26T12:35:53;98066.41;;;10.30;55.99
68226;BME280;55045;49.410;11.030;2023-04-26T12:38:58;98027.94;;;10.21;53.19
68226;BME280;55045;49.410;11.030;2023-04-26T12:42:06;98064.31;;;10.73;57.00
68226;BME280;55045;49.410;11.030;2023-04-26T12:45:10;98046.38;;;10.15;56.08
68226;BME280;55045;49.410;11.030;2023-04-26T12:48:13;98052.84;;;10.25;59.75
68226;BME280;55045;49.410;11.030;2023-04-26T12:51:17;98061.09;;;10.33;57.68
68226;BME280;55045;49.410;11.030;2023-04-26T12:54:20;98058.75;;;10.80;57.33
68226;BME280;55045;49.410;11.030;2023-04-26T12:57:25;98044.78;;;10.12;57.89
68226;BME280;55045;49.410;11.030;2023-04-26T13:00:29;98023.50;;;10.05;59.62
68226;BME280;55045;49.410;11.030;2023-04-26T13:03:32;98050.66;;;10.16;59.39
68226;BME280;55045;49.410;11.030;2023-04-26T13:06:35;98057.09;;;10.26;62.37
68226;BME280;55045;49.410;11.030;2023-04-26T13:09:39;98046.63;;;10.63;61.53
68226;BME280;55045;49.410;11.030;2023-04-26T13:12:44;98039.00;;;10.95;61.81
68226;BME280;55045;49.410;11.030;2023-04-26T13:15:47;98046.69;;;10.62;56.31
68226;BME280;55045;49.410;11.030;2023-04-26T13:18:50;97989.78;;;10.93;65.82
68226;BME280;55045;49.410;11.030;2023-04-26T13:21:54;98030.13;;;10.99;55.03
68226;BME280;55045;49.410;11.030;2023-04-26T13:24:57;98038.88;;;11.47;58.11
68226;BME280;55045;49.410;11.030;2023-04-26T13:28:02;98029.03;;;9.79;60.83
68226;BME280;55045;49.410;11.030;2023-04-26T13:31:06;98053.22;;;10.52;61.81
68226;BME280;55045;49.410;11.030;2023-04-26T13:34:09;98051.34;;;10.19;57.84
68226;BME280;55045;49.410;11.030;2023-04-26T13:37:14;98042.94;;;10.14;58.81
68226;BME280;55045;49.410;11.030;2023-04-26T13:40:18;97994.91;;;10.43;58.18
68226;BME280;55045;49.410;11.030;2023-04-26T13:43:24;98033.69;;;11.14;56.61
68226;BME280;55045;49.410;11.030;2023-04-26T13:46:28;98029.91;;;11.04;55.93
68226;BME280;55045;49.410;11.030;2023-04-26T13:49:31;98026.91;;;11.44;60.11
68226;BME280;55045;49.410;11.030;2023-04-26T13:52:34;98042.81;;;11.21;57.64
68226;BME280;55045;49.410;11.030;2023-04-26T13:55:38;98042.63;;;11.08;59.34
68226;BME280;55045;49.410;11.030;2023-04-26T13:58:42;98029.16;;;10.84;61.23
68226;BME280;55045;49.410;11.030;2023-04-26T14:01:45;98035.41;;;10.80;55.82
68226;BME280;55045;49.410;11.030;2023-04-26T14:04:49;98031.34;;;10.40;58.46
68226;BME280;55045;49.410;11.030;2023-04-26T14:07:53;98037.19;;;11.13;58.19
68226;BME280;55045;49.410;11.030;2023-04-26T14:10:56;98040.34;;;11.02;57.91
68226;BME280;55045;49.410;11.030;2023-04-26T14:14:01;98044.72;;;11.35;60.71
68226;BME280;55045;49.410;11.030;2023-04-26T14:17:04;98027.06;;;10.91;58.74
68226;BME280;55045;49.410;11.030;2023-04-26T14:20:09;98050.09;;;11.63;60.71
68226;BME280;55045;49.410;11.030;2023-04-26T14:23:13;98037.97;;;10.98;58.38
68226;BME280;55045;49.410;11.030;2023-04-26T14:26:16;97999.53;;;10.88;57.32
68226;BME280;55045;49.410;11.030;2023-04-26T14:29:21;98045.56;;;10.85;56.62
68226;BME280;55045;49.410;11.030;2023-04-26T14:32:24;98023.59;;;10.57;60.16
68226;BME280;55045;49.410;11.030;2023-04-26T14:35:28;98032.50;;;10.16;58.76
68226;BME280;55045;49.410;11.030;2023-04-26T14:38:31;98044.03;;;10.63;58.74
68226;BME280;55045;49.410;11.030;2023-04-26T14:41:34;98044.63;;;10.68;56.92
68226;BME280;55045;49.410;11.030;2023-04-26T14:44:40;98037.31;;;10.94;57.55
68226;BME280;55045;49.410;11.030;2023-04-26T14:47:43;98029.97;;;11.35;58.90
68226;BME280;55045;49.410;11.030;2023-04-26T14:50:46;98027.34;;;11.02;57.22
68226;BME280;55045;49.410;11.030;2023-04-26T14:53:49;98027.34;;;11.02;60.52
68226;BME280;55045;49.410;11.030;2023-04-26T14:56:53;97969.50;;;10.67;56.43
68226;BME280;55045;49.410;11.030;2023-04-26T14:59:58;98027.94;;;10.74;57.76
68226;BME280;55045;49.410;11.030;2023-04-26T15:03:08;97996.34;;;10.49;57.83
68226;BME280;55045;49.410;11.030;2023-04-26T15:06:12;98021.28;;;10.51;54.91
68226;BME280;55045;49.410;11.030;2023-04-26T15:09:15;98021.09;;;11.39;54.56
68226;BME280;55045;49.410;11.030;2023-04-26T15:12:19;98022.59;;;11.28;56.84
68226;BME280;55045;49.410;11.030;2023-04-26T15:15:24;98013.81;;;10.80;57.15
68226;BME280;55045;49.410;11.030;2023-04-26T15:18:27;97999.53;;;10.00;56.34
68226;BME280;55045;49.410;11.030;2023-04-26T15:21:30;98006.66;;;10.85;60.19
68226;BME280;55045;49.410;11.030;2023-04-26T15:24:35;97902.03;;;10.34;58.49
68226;BME280;55045;49.410;11.030;2023-04-26T15:27:39;97940.13;;;10.15;56.82
68226;BME280;55045;49.410;11.030;2023-04-26T15:34:48;98021.28;;;10.51;55.98
68226;BME280;55045;49.410;11.030;2023-04-26T15:37:51;98025.13;;;10.44;59.01
68226;BME280;55045;49.410;11.030;2023-04-26T15:40:55;98020.84;;;10.60;58.87
68226;BME280;55045;49.410;11.030;2023-04-26T15:43:59;98025.19;;;10.60;56.30
68226;BME280;55045;49.410;11.030;2023-04-26T15:47:02;97999.78;;;10.49;57.01
68226;BME280;55045;49.410;11.030;2023-04-26T15:50:11;98014.94;;;10.39;55.51
68226;BME280;55045;49.410;11.030;2023-04-26T15:53:14;98018.81;;;11.00;55.80
68226;BME280;55045;49.410;11.030;2023-04-26T15:56:18;98015.00;;;11.07;57.34
68226;BME280;55045;49.410;11.030;2023-04-26T15:59:21;97964.47;;;10.64;59.54
68226;BME280;55045;49.410;11.030;2023-04-26T16:02:25;97916.41;;;9.88;58.17
68226;BME280;55045;49.410;11.030;2023-04-26T16:05:30;98019.22;;;10.58;60.32
68226;BME280;55045;49.410;11.030;2023-04-26T16:08:33;97998.56;;;10.39;58.58
68226;BME280;55045;49.410;11.030;2023-04-26T16:11:41;98017.72;;;10.54;60.73
68226;BME280;55045;49.410;11.030;2023-04-26T16:14:44;98015.97;;;10.54;58.14
68226;BME280;55045;49.410;11.030;2023-04-26T16:17:49;97969.78;;;10.61;56.98
68226;BME280;55045;49.410;11.030;2023-04-26T16:21:02;97984.38;;;10.46;58.32
68226;BME280;55045;49.410;11.030;2023-04-26T16:24:05;97999.25;;;10.60;56.43